sensor_id;sensor_type;location;lat;lon;timestamp;temperature;humidity
11246;DHT22;59870;50.106;8.580;2023-08-24T00:00:29;24.60;74.20
11246;DHT22;59870;50.106;8.580;2023-08-24T00:02:57;24.50;73.70
11246;DHT22;59870;50.106;8.580;2023-08-24T00:05:25;24.50;74.80
11246;DHT22;59870;50.106;8.580;2023-08-24T00:07:53;24.50;74.40
11246;DHT22;59870;50.106;8.580;2023-08-24T00:10:20;24.50;74.40
11246;DHT22;59870;50.106;8.580;2023-08-24T00:12:48;24.40;74.50
11246;DHT22;59870;50.106;8.580;2023-08-24T00:15:15;24.70;75.20
11246;DHT22;59870;50.106;8.580;2023-08-24T00:17:43;24.70;75.20
11246;DHT22;59870;50.106;8.580;2023-08-24T00:20:10;24.40;75.10
11246;DHT22;59870;50.106;8.580;2023-08-24T00:22:38;24.40;74.70
11246;DHT22;59870;50.106;8.580;2023-08-24T00:25:07;24.40;74.90
11246;DHT22;59870;50.106;8.580;2023-08-24T00:27:36;24.40;75.60
11246;DHT22;59870;50.106;8.580;2023-08-24T00:30:05;24.60;74.80
11246;DHT22;59870;50.106;8.580;2023-08-24T00:32:36;24.30;74.60
11246;DHT22;59870;50.106;8.580;2023-08-24T00:35:05;24.60;74.70
11246;DHT22;59870;50.106;8.580;2023-08-24T00:37:35;24.30;74.60
11246;DHT22;59870;50.106;8.580;2023-08-24T00:40:05;24.40;74.90
11246;DHT22;59870;50.106;8.580;2023-08-24T00:42:39;24.30;75.00
11246;DHT22;59870;50.106;8.580;2023-08-24T00:45:09;24.20;74.90
11246;DHT22;59870;50.106;8.580;2023-08-24T00:47:39;24.20;74.90
11246;DHT22;59870;50.106;8.580;2023-08-24T00:50:09;24.50;75.80
11246;DHT22;59870;50.106;8.580;2023-08-24T00:52:41;24.10;75.10
11246;DHT22;59870;50.106;8.580;2023-08-24T00:55:09;24.10;75.80
11246;DHT22;59870;50.106;8.580;2023-08-24T00:57:37;24.10;75.60
11246;DHT22;59870;50.106;8.580;2023-08-24T01:00:07;24.40;75.80
11246;DHT22;59870;50.106;8.580;2023-08-24T01:02:38;24.10;75.80
11246;DHT22;59870;50.106;8.580;2023-08-24T01:05:06;24.00;76.10
11246;DHT22;59870;50.106;8.580;2023-08-24T01:07:35;24.00;76.60
11246;DHT22;59870;50.106;8.580;2023-08-24T01:10:05;24.00;77.50
11246;DHT22;59870;50.106;8.580;2023-08-24T01:18:16;24.00;78.30
11246;DHT22;59870;50.106;8.580;2023-08-24T01:20:47;24.10;78.20
11246;DHT22;59870;50.106;8.580;2023-08-24T01:23:49;23.90;78.00
11246;DHT22;59870;50.106;8.580;2023-08-24T01:26:21;23.90;78.00
11246;DHT22;59870;50.106;8.580;2023-08-24T01:28:49;24.00;78.60
11246;DHT22;59870;50.106;8.580;2023-08-24T01:31:17;23.90;78.80
11246;DHT22;59870;50.106;8.580;2023-08-24T01:33:48;23.80;78.90
11246;DHT22;59870;50.106;8.580;2023-08-24T01:36:15;23.90;79.30
11246;DHT22;59870;50.106;8.580;2023-08-24T01:39:11;23.90;79.20
11246;DHT22;59870;50.106;8.580;2023-08-24T01:41:42;23.80;79.70
11246;DHT22;59870;50.106;8.580;2023-08-24T01:44:13;23.80;79.60
11246;DHT22;59870;50.106;8.580;2023-08-24T01:46:43;23.80;79.20
11246;DHT22;59870;50.106;8.580;2023-08-24T01:49:13;24.10;79.70
11246;DHT22;59870;50.106;8.580;2023-08-24T01:51:42;24.00;80.00
11246;DHT22;59870;50.106;8.580;2023-08-24T01:54:10;23.80;80.50
11246;DHT22;59870;50.106;8.580;2023-08-24T01:56:41;24.00;80.40
11246;DHT22;59870;50.106;8.580;2023-08-24T01:59:08;23.70;80.30
11246;DHT22;59870;50.106;8.580;2023-08-24T02:01:36;23.70;80.80
11246;DHT22;59870;50.106;8.580;2023-08-24T02:04:04;24.10;81.20
11246;DHT22;59870;50.106;8.580;2023-08-24T02:06:31;23.70;81.10
11246;DHT22;59870;50.106;8.580;2023-08-24T02:08:58;24.00;81.50
11246;DHT22;59870;50.106;8.580;2023-08-24T02:11:26;23.70;81.50
11246;DHT22;59870;50.106;8.580;2023-08-24T02:13:54;23.60;82.30
11246;DHT22;59870;50.106;8.580;2023-08-24T02:16:21;23.60;83.20
11246;DHT22;59870;50.106;8.580;2023-08-24T02:18:51;23.60;83.30
11246;DHT22;59870;50.106;8.580;2023-08-24T02:21:18;23.60;83.80
11246;DHT22;59870;50.106;8.580;2023-08-24T02:23:46;23.60;84.40
11246;DHT22;59870;50.106;8.580;2023-08-24T02:26:13;23.50;83.30
11246;DHT22;59870;50.106;8.580;2023-08-24T02:28:41;23.50;83.60
11246;DHT22;59870;50.106;8.580;2023-08-24T02:31:10;23.40;83.00
11246;DHT22;59870;50.106;8.580;2023-08-24T02:33:37;23.50;82.90
11246;DHT22;59870;50.106;8.580;2023-08-24T02:36:04;23.30;83.20
11246;DHT22;59870;50.106;8.580;2023-08-24T02:38:32;23.30;83.10
11246;DHT22;59870;50.106;8.580;2023-08-24T02:41:04;23.30;83.00
11246;DHT22;59870;50.106;8.580;2023-08-24T02:43:33;23.30;83.20
11246;DHT22;59870;50.106;8.580;2023-08-24T02:46:06;23.50;83.20
11246;DHT22;59870;50.106;8.580;2023-08-24T02:48:34;23.30;83.00
11246;DHT22;59870;50.106;8.580;2023-08-24T02:51:03;23.30;83.00
11246;DHT22;59870;50.106;8.580;2023-08-24T02:53:31;23.60;83.30
11246;DHT22;59870;50.106;8.580;2023-08-24T02:56:00;23.60;83.40
11246;DHT22;59870;50.106;8.580;2023-08-24T02:58:28;23.40;83.40
11246;DHT22;59870;50.106;8.580;2023-08-24T03:00:56;23.30;83.20
11246;DHT22;59870;50.106;8.580;2023-08-24T03:03:24;23.30;83.30
11246;DHT22;59870;50.106;8.580;2023-08-24T03:05:58;23.30;83.70
11246;DHT22;59870;50.106;8.580;2023-08-24T03:08:31;23.40;83.70
11246;DHT22;59870;50.106;8.580;2023-08-24T03:11:00;23.20;83.40
11246;DHT22;59870;50.106;8.580;2023-08-24T03:13:28;23.60;83.50
11246;DHT22;59870;50.106;8.580;2023-08-24T03:15:57;23.30;83.70
11246;DHT22;59870;50.106;8.580;2023-08-24T03:18:28;23.30;82.90
11246;DHT22;59870;50.106;8.580;2023-08-24T03:20:55;23.60;83.20
11246;DHT22;59870;50.106;8.580;2023-08-24T03:23:22;23.30;83.00
11246;DHT22;59870;50.106;8.580;2023-08-24T03:25:50;23.20;83.10
11246;DHT22;59870;50.106;8.580;2023-08-24T03:28:17;23.20;83.50
11246;DHT22;59870;50.106;8.580;2023-08-24T03:30:50;23.20;83.80
11246;DHT22;59870;50.106;8.580;2023-08-24T03:33:17;23.20;84.20
11246;DHT22;59870;50.106;8.580;2023-08-24T03:35:46;23.00;84.50
11246;DHT22;59870;50.106;8.580;2023-08-24T03:38:14;23.00;84.60
11246;DHT22;59870;50.106;8.580;2023-08-24T03:40:42;23.00;84.50
11246;DHT22;59870;50.106;8.580;2023-08-24T03:43:10;23.00;84.60
11246;DHT22;59870;50.106;8.580;2023-08-24T03:45:39;22.90;84.80
11246;DHT22;59870;50.106;8.580;2023-08-24T03:48:06;22.90;85.00
11246;DHT22;59870;50.106;8.580;2023-08-24T03:50:34;22.90;85.00
11246;DHT22;59870;50.106;8.580;2023-08-24T03:53:03;22.80;85.20
11246;DHT22;59870;50.106;8.580;2023-08-24T03:55:30;22.80;85.40
11246;DHT22;59870;50.106;8.580;2023-08-24T03:58:00;22.80;85.90
11246;DHT22;59870;50.106;8.580;2023-08-24T04:00:27;22.70;85.80
11246;DHT22;59870;50.106;8.580;2023-08-24T04:02:55;22.70;86.20
11246;DHT22;59870;50.106;8.580;2023-08-24T04:05:25;22.70;86.50
11246;DHT22;59870;50.106;8.580;2023-08-24T04:07:53;22.90;87.10
11246;DHT22;59870;50.106;8.580;2023-08-24T04:10:20;22.60;87.00
11246;DHT22;59870;50.106;8.580;2023-08-24T04:12:48;22.50;87.10
11246;DHT22;59870;50.106;8.580;2023-08-24T04:15:16;22.70;87.50
11246;DHT22;59870;50.106;8.580;2023-08-24T04:17:43;22.50;87.60
11246;DHT22;59870;50.106;8.580;2023-08-24T04:20:12;22.50;87.80
11246;DHT22;59870;50.106;8.580;2023-08-24T04:22:39;22.50;87.80
11246;DHT22;59870;50.106;8.580;2023-08-24T04:25:07;22.80;88.40
11246;DHT22;59870;50.106;8.580;2023-08-24T04:27:35;22.40;87.90
11246;DHT22;59870;50.106;8.580;2023-08-24T04:30:03;22.60;88.50
11246;DHT22;59870;50.106;8.580;2023-08-24T04:32:32;22.30;88.80
11246;DHT22;59870;50.106;8.580;2023-08-24T04:35:00;22.30;89.40
11246;DHT22;59870;50.106;8.580;2023-08-24T04:37:28;22.20;89.40
11246;DHT22;59870;50.106;8.580;2023-08-24T04:39:55;22.20;89.60
11246;DHT22;59870;50.106;8.580;2023-08-24T04:42:23;22.10;89.90
11246;DHT22;59870;50.106;8.580;2023-08-24T04:44:52;22.10;90.00
11246;DHT22;59870;50.106;8.580;2023-08-24T04:47:19;22.10;90.00
11246;DHT22;59870;50.106;8.580;2023-08-24T04:49:47;22.20;90.20
11246;DHT22;59870;50.106;8.580;2023-08-24T04:52:14;22.20;90.10
11246;DHT22;59870;50.106;8.580;2023-08-24T04:54:42;22.50;90.30
11246;DHT22;59870;50.106;8.580;2023-08-24T04:57:09;22.30;90.20
11246;DHT22;59870;50.106;8.580;2023-08-24T04:59:37;22.20;90.30
11246;DHT22;59870;50.106;8.580;2023-08-24T05:02:04;22.40;90.50
11246;DHT22;59870;50.106;8.580;2023-08-24T05:04:31;22.30;90.30
11246;DHT22;59870;50.106;8.580;2023-08-24T05:06:59;22.30;90.00
11246;DHT22;59870;50.106;8.580;2023-08-24T05:09:26;22.30;90.10
11246;DHT22;59870;50.106;8.580;2023-08-24T05:11:54;22.30;90.30
11246;DHT22;59870;50.106;8.580;2023-08-24T05:14:21;22.30;90.50
11246;DHT22;59870;50.106;8.580;2023-08-24T05:16:48;22.40;90.30
11246;DHT22;59870;50.106;8.580;2023-08-24T05:19:16;22.40;90.30
11246;DHT22;59870;50.106;8.580;2023-08-24T05:21:44;22.50;90.30
11246;DHT22;59870;50.106;8.580;2023-08-24T05:24:11;22.50;90.50
11246;DHT22;59870;50.106;8.580;2023-08-24T05:26:39;22.50;90.20
11246;DHT22;59870;50.106;8.580;2023-08-24T05:29:06;22.60;90.40
11246;DHT22;59870;50.106;8.580;2023-08-24T05:31:34;22.70;90.20
11246;DHT22;59870;50.106;8.580;2023-08-24T05:34:01;22.70;89.70
11246;DHT22;59870;50.106;8.580;2023-08-24T05:36:29;22.80;89.60
11246;DHT22;59870;50.106;8.580;2023-08-24T05:38:56;22.80;89.90
11246;DHT22;59870;50.106;8.580;2023-08-24T05:41:27;22.80;89.50
11246;DHT22;59870;50.106;8.580;2023-08-24T05:43:54;23.00;89.30
11246;DHT22;59870;50.106;8.580;2023-08-24T05:46:22;22.80;88.90
11246;DHT22;59870;50.106;8.580;2023-08-24T05:48:49;22.80;89.00
11246;DHT22;59870;50.106;8.580;2023-08-24T05:51:17;23.10;90.00
11246;DHT22;59870;50.106;8.580;2023-08-24T05:53:44;22.80;89.80
11246;DHT22;59870;50.106;8.580;2023-08-24T05:56:12;23.00;89.60
11246;DHT22;59870;50.106;8.580;2023-08-24T05:58:40;23.20;89.60
11246;DHT22;59870;50.106;8.580;2023-08-24T06:01:08;23.30;89.90
11246;DHT22;59870;50.106;8.580;2023-08-24T06:03:36;23.30;90.00
11246;DHT22;59870;50.106;8.580;2023-08-24T06:06:04;23.40;90.10
11246;DHT22;59870;50.106;8.580;2023-08-24T06:08:32;23.20;90.10
11246;DHT22;59870;50.106;8.580;2023-08-24T06:11:00;23.20;89.40
11246;DHT22;59870;50.106;8.580;2023-08-24T06:13:28;23.30;90.40
11246;DHT22;59870;50.106;8.580;2023-08-24T06:15:55;23.40;90.00
11246;DHT22;59870;50.106;8.580;2023-08-24T06:18:23;23.60;89.40
11246;DHT22;59870;50.106;8.580;2023-08-24T06:20:50;23.50;89.40
11246;DHT22;59870;50.106;8.580;2023-08-24T06:23:18;23.90;90.20
11246;DHT22;59870;50.106;8.580;2023-08-24T06:25:47;23.70;90.00
11246;DHT22;59870;50.106;8.580;2023-08-24T06:28:14;23.70;90.00
11246;DHT22;59870;50.106;8.580;2023-08-24T06:30:42;24.00;90.10
11246;DHT22;59870;50.106;8.580;2023-08-24T06:33:10;24.10;89.10
11246;DHT22;59870;50.106;8.580;2023-08-24T06:35:38;24.10;88.50
11246;DHT22;59870;50.106;8.580;2023-08-24T06:38:06;24.10;88.40
11246;DHT22;59870;50.106;8.580;2023-08-24T06:40:34;24.00;88.40
11246;DHT22;59870;50.106;8.580;2023-08-24T06:43:01;24.20;88.20
11246;DHT22;59870;50.106;8.580;2023-08-24T06:45:29;24.10;88.70
11246;DHT22;59870;50.106;8.580;2023-08-24T06:47:57;24.20;88.10
11246;DHT22;59870;50.106;8.580;2023-08-24T06:50:24;24.20;88.90
11246;DHT22;59870;50.106;8.580;2023-08-24T06:52:56;24.10;88.40
11246;DHT22;59870;50.106;8.580;2023-08-24T06:55:24;24.40;88.40
11246;DHT22;59870;50.106;8.580;2023-08-24T06:57:51;24.00;88.80
11246;DHT22;59870;50.106;8.580;2023-08-24T07:00:20;23.90;89.00
11246;DHT22;59870;50.106;8.580;2023-08-24T07:02:51;23.90;89.10
11246;DHT22;59870;50.106;8.580;2023-08-24T07:05:19;23.90;89.80
11246;DHT22;59870;50.106;8.580;2023-08-24T07:07:50;23.80;89.70
11246;DHT22;59870;50.106;8.580;2023-08-24T07:10:18;23.80;90.40
11246;DHT22;59870;50.106;8.580;2023-08-24T07:12:47;23.90;90.90
11246;DHT22;59870;50.106;8.580;2023-08-24T07:15:40;24.10;90.40
11246;DHT22;59870;50.106;8.580;2023-08-24T07:18:08;24.00;90.30
11246;DHT22;59870;50.106;8.580;2023-08-24T07:20:37;24.10;90.40
11246;DHT22;59870;50.106;8.580;2023-08-24T07:23:04;24.40;90.50
11246;DHT22;59870;50.106;8.580;2023-08-24T07:25:32;24.40;90.50
11246;DHT22;59870;50.106;8.580;2023-08-24T07:28:00;24.20;90.40
11246;DHT22;59870;50.106;8.580;2023-08-24T07:30:31;24.20;90.60
11246;DHT22;59870;50.106;8.580;2023-08-24T07:33:01;24.20;90.80
11246;DHT22;59870;50.106;8.580;2023-08-24T07:35:30;24.30;90.70
11246;DHT22;59870;50.106;8.580;2023-08-24T07:37:58;24.30;90.90
11246;DHT22;59870;50.106;8.580;2023-08-24T07:40:25;24.30;90.80
11246;DHT22;59870;50.106;8.580;2023-08-24T07:42:53;24.40;90.60
11246;DHT22;59870;50.106;8.580;2023-08-24T07:45:23;24.40;91.10
11246;DHT22;59870;50.106;8.580;2023-08-24T07:47:51;24.30;91.50
11246;DHT22;59870;50.106;8.580;2023-08-24T07:50:22;24.40;91.50
11246;DHT22;59870;50.106;8.580;2023-08-24T07:52:50;24.40;91.20
11246;DHT22;59870;50.106;8.580;2023-08-24T07:55:21;24.70;91.40
11246;DHT22;59870;50.106;8.580;2023-08-24T07:57:49;24.50;91.20
11246;DHT22;59870;50.106;8.580;2023-08-24T08:00:19;24.50;91.00
11246;DHT22;59870;50.106;8.580;2023-08-24T08:02:49;24.60;91.20
11246;DHT22;59870;50.106;8.580;2023-08-24T08:05:18;24.50;91.00
11246;DHT22;59870;50.106;8.580;2023-08-24T08:07:47;24.60;90.90
11246;DHT22;59870;50.106;8.580;2023-08-24T08:10:15;24.50;91.30
11246;DHT22;59870;50.106;8.580;2023-08-24T08:12:45;24.50;91.60
11246;DHT22;59870;50.106;8.580;2023-08-24T08:15:13;24.60;91.50
11246;DHT22;59870;50.106;8.580;2023-08-24T08:17:40;24.70;91.70
11246;DHT22;59870;50.106;8.580;2023-08-24T08:20:11;24.50;91.80
11246;DHT22;59870;50.106;8.580;2023-08-24T08:22:39;24.40;92.60
11246;DHT22;59870;50.106;8.580;2023-08-24T08:25:07;24.50;92.00
11246;DHT22;59870;50.106;8.580;2023-08-24T08:27:34;24.60;91.40
11246;DHT22;59870;50.106;8.580;2023-08-24T08:30:02;24.90;91.70
11246;DHT22;59870;50.106;8.580;2023-08-24T08:32:33;24.60;92.00
11246;DHT22;59870;50.106;8.580;2023-08-24T08:35:02;24.90;92.00
11246;DHT22;59870;50.106;8.580;2023-08-24T08:37:31;24.70;92.10
11246;DHT22;59870;50.106;8.580;2023-08-24T08:39:59;24.90;91.80
11246;DHT22;59870;50.106;8.580;2023-08-24T08:42:29;25.10;91.50
11246;DHT22;59870;50.106;8.580;2023-08-24T08:44:57;25.50;91.20
11246;DHT22;59870;50.106;8.580;2023-08-24T08:47:27;25.60;91.00
11246;DHT22;59870;50.106;8.580;2023-08-24T08:49:55;25.70;90.50
11246;DHT22;59870;50.106;8.580;2023-08-24T08:52:23;26.30;89.50
11246;DHT22;59870;50.106;8.580;2023-08-24T08:54:52;26.20;88.50
11246;DHT22;59870;50.106;8.580;2023-08-24T08:57:21;26.80;86.80
11246;DHT22;59870;50.106;8.580;2023-08-24T08:59:51;27.20;85.50
11246;DHT22;59870;50.106;8.580;2023-08-24T09:02:20;27.30;83.20
11246;DHT22;59870;50.106;8.580;2023-08-24T09:04:48;27.80;81.80
11246;DHT22;59870;50.106;8.580;2023-08-24T09:07:18;28.40;81.60
11246;DHT22;59870;50.106;8.580;2023-08-24T09:09:45;28.70;80.20
11246;DHT22;59870;50.106;8.580;2023-08-24T09:12:12;29.30;76.90
11246;DHT22;59870;50.106;8.580;2023-08-24T09:14:40;29.70;74.20
11246;DHT22;59870;50.106;8.580;2023-08-24T09:17:10;30.20;74.10
11246;DHT22;59870;50.106;8.580;2023-08-24T09:19:37;30.90;72.60
11246;DHT22;59870;50.106;8.580;2023-08-24T09:22:07;31.10;71.00
11246;DHT22;59870;50.106;8.580;2023-08-24T09:24:36;31.60;70.80
11246;DHT22;59870;50.106;8.580;2023-08-24T09:27:22;32.10;69.90
11246;DHT22;59870;50.106;8.580;2023-08-24T09:29:50;32.70;69.20
11246;DHT22;59870;50.106;8.580;2023-08-24T09:32:27;33.20;61.30
11246;DHT22;59870;50.106;8.580;2023-08-24T09:34:55;33.60;61.20
11246;DHT22;59870;50.106;8.580;2023-08-24T09:37:24;34.10;58.90
11246;DHT22;59870;50.106;8.580;2023-08-24T09:40:01;34.70;57.70
11246;DHT22;59870;50.106;8.580;2023-08-24T09:42:40;34.80;57.80
11246;DHT22;59870;50.106;8.580;2023-08-24T09:45:12;35.00;55.40
11246;DHT22;59870;50.106;8.580;2023-08-24T09:47:50;35.00;54.20
11246;DHT22;59870;50.106;8.580;2023-08-24T09:50:24;35.00;56.90
11246;DHT22;59870;50.106;8.580;2023-08-24T09:52:54;35.00;53.60
11246;DHT22;59870;50.106;8.580;2023-08-24T09:55:25;34.90;53.40
11246;DHT22;59870;50.106;8.580;2023-08-24T09:57:55;34.70;53.40
11246;DHT22;59870;50.106;8.580;2023-08-24T10:00:25;34.60;55.30
11246;DHT22;59870;50.106;8.580;2023-08-24T10:02:59;34.40;55.00
11246;DHT22;59870;50.106;8.580;2023-08-24T10:05:33;34.30;54.90
11246;DHT22;59870;50.106;8.580;2023-08-24T10:08:43;34.40;54.70
11246;DHT22;59870;50.106;8.580;2023-08-24T10:11:17;34.10;56.10
11246;DHT22;59870;50.106;8.580;2023-08-24T10:14:24;34.00;54.50
11246;DHT22;59870;50.106;8.580;2023-08-24T10:16:53;33.80;56.20
11246;DHT22;59870;50.106;8.580;2023-08-24T10:19:22;33.70;54.90
11246;DHT22;59870;50.106;8.580;2023-08-24T10:21:51;33.40;56.00
11246;DHT22;59870;50.106;8.580;2023-08-24T10:24:20;33.30;56.20
11246;DHT22;59870;50.106;8.580;2023-08-24T10:26:48;33.10;55.50
11246;DHT22;59870;50.106;8.580;2023-08-24T10:29:17;33.00;56.10
11246;DHT22;59870;50.106;8.580;2023-08-24T10:31:44;33.10;56.20
11246;DHT22;59870;50.106;8.580;2023-08-24T10:34:12;32.80;56.50
11246;DHT22;59870;50.106;8.580;2023-08-24T10:36:40;32.70;56.50
11246;DHT22;59870;50.106;8.580;2023-08-24T10:39:08;32.90;56.50
11246;DHT22;59870;50.106;8.580;2023-08-24T10:41:50;32.60;56.50
11246;DHT22;59870;50.106;8.580;2023-08-24T10:44:24;32.40;55.80
11246;DHT22;59870;50.106;8.580;2023-08-24T10:49:35;32.40;56.00
11246;DHT22;59870;50.106;8.580;2023-08-24T10:52:18;32.20;55.30
11246;DHT22;59870;50.106;8.580;2023-08-24T10:54:48;32.10;55.90
11246;DHT22;59870;50.106;8.580;2023-08-24T10:57:26;32.20;54.90
11246;DHT22;59870;50.106;8.580;2023-08-24T11:00:06;32.20;55.20
11246;DHT22;59870;50.106;8.580;2023-08-24T11:02:49;32.20;56.30
11246;DHT22;59870;50.106;8.580;2023-08-24T11:07:54;32.80;55.00
11246;DHT22;59870;50.106;8.580;2023-08-24T11:10:30;32.80;55.10
11246;DHT22;59870;50.106;8.580;2023-08-24T11:15:49;32.90;54.00
11246;DHT22;59870;50.106;8.580;2023-08-24T11:18:28;32.60;55.40
11246;DHT22;59870;50.106;8.580;2023-08-24T11:20:56;32.60;53.80
11246;DHT22;59870;50.106;8.580;2023-08-24T11:23:24;32.60;53.80
11246;DHT22;59870;50.106;8.580;2023-08-24T11:25:54;32.60;54.20
11246;DHT22;59870;50.106;8.580;2023-08-24T11:28:25;32.50;54.80
11246;DHT22;59870;50.106;8.580;2023-08-24T11:30:54;32.60;55.30
11246;DHT22;59870;50.106;8.580;2023-08-24T11:33:35;32.70;53.50
11246;DHT22;59870;50.106;8.580;2023-08-24T11:36:04;32.80;54.50
11246;DHT22;59870;50.106;8.580;2023-08-24T11:38:39;32.80;54.60
11246;DHT22;59870;50.106;8.580;2023-08-24T11:41:14;32.80;55.20
11246;DHT22;59870;50.106;8.580;2023-08-24T11:43:45;32.80;54.20
11246;DHT22;59870;50.106;8.580;2023-08-24T11:46:15;32.90;54.00
11246;DHT22;59870;50.106;8.580;2023-08-24T11:48:43;32.80;53.80
11246;DHT22;59870;50.106;8.580;2023-08-24T11:51:12;32.90;54.70
11246;DHT22;59870;50.106;8.580;2023-08-24T11:53:45;32.90;54.90
11246;DHT22;59870;50.106;8.580;2023-08-24T11:56:13;32.90;53.90
11246;DHT22;59870;50.106;8.580;2023-08-24T11:58:42;32.90;53.30
11246;DHT22;59870;50.106;8.580;2023-08-24T12:01:11;32.90;53.20
11246;DHT22;59870;50.106;8.580;2023-08-24T12:03:40;32.90;51.70
11246;DHT22;59870;50.106;8.580;2023-08-24T12:06:13;32.90;52.80
11246;DHT22;59870;50.106;8.580;2023-08-24T12:08:44;32.90;54.10
11246;DHT22;59870;50.106;8.580;2023-08-24T12:11:19;32.90;53.40
11246;DHT22;59870;50.106;8.580;2023-08-24T12:13:50;32.80;53.00
11246;DHT22;59870;50.106;8.580;2023-08-24T12:16:21;32.90;53.10
11246;DHT22;59870;50.106;8.580;2023-08-24T12:18:57;32.80;52.90
11246;DHT22;59870;50.106;8.580;2023-08-24T12:21:30;32.80;52.40
11246;DHT22;59870;50.106;8.580;2023-08-24T12:24:04;33.00;53.50
11246;DHT22;59870;50.106;8.580;2023-08-24T12:26:36;33.00;53.20
11246;DHT22;59870;50.106;8.580;2023-08-24T12:29:08;33.00;51.70
11246;DHT22;59870;50.106;8.580;2023-08-24T12:31:36;33.30;52.50
11246;DHT22;59870;50.106;8.580;2023-08-24T12:34:09;33.10;52.80
11246;DHT22;59870;50.106;8.580;2023-08-24T12:36:38;33.20;52.20
11246;DHT22;59870;50.106;8.580;2023-08-24T12:39:07;33.10;52.50
11246;DHT22;59870;50.106;8.580;2023-08-24T12:41:38;33.20;51.70
11246;DHT22;59870;50.106;8.580;2023-08-24T12:44:06;33.20;53.50
11246;DHT22;59870;50.106;8.580;2023-08-24T12:46:38;33.30;51.70
11246;DHT22;59870;50.106;8.580;2023-08-24T12:49:08;33.40;52.50
11246;DHT22;59870;50.106;8.580;2023-08-24T12:51:36;33.20;52.50
11246;DHT22;59870;50.106;8.580;2023-08-24T12:54:06;33.40;52.70
11246;DHT22;59870;50.106;8.580;2023-08-24T12:56:41;33.50;51.90
11246;DHT22;59870;50.106;8.580;2023-08-24T12:59:10;33.70;51.80
11246;DHT22;59870;50.106;8.580;2023-08-24T13:01:39;33.50;52.30
11246;DHT22;59870;50.106;8.580;2023-08-24T13:04:06;33.60;52.40
11246;DHT22;59870;50.106;8.580;2023-08-24T13:06:34;33.70;52.20
11246;DHT22;59870;50.106;8.580;2023-08-24T13:09:02;33.70;52.80
11246;DHT22;59870;50.106;8.580;2023-08-24T13:11:30;33.70;51.90
11246;DHT22;59870;50.106;8.580;2023-08-24T13:13:58;33.70;52.20
11246;DHT22;59870;50.106;8.580;2023-08-24T13:16:25;33.70;52.00
11246;DHT22;59870;50.106;8.580;2023-08-24T13:18:55;33.70;52.40
11246;DHT22;59870;50.106;8.580;2023-08-24T13:21:24;33.70;52.70
11246;DHT22;59870;50.106;8.580;2023-08-24T13:23:52;33.70;52.70
11246;DHT22;59870;50.106;8.580;2023-08-24T13:26:22;33.80;53.50
11246;DHT22;59870;50.106;8.580;2023-08-24T13:28:54;34.00;53.30
11246;DHT22;59870;50.106;8.580;2023-08-24T13:31:23;33.80;53.60
11246;DHT22;59870;50.106;8.580;2023-08-24T13:33:51;34.00;52.70
11246;DHT22;59870;50.106;8.580;2023-08-24T13:36:18;33.80;55.20
11246;DHT22;59870;50.106;8.580;2023-08-24T13:38:46;33.90;56.70
11246;DHT22;59870;50.106;8.580;2023-08-24T13:41:17;33.90;56.70
11246;DHT22;59870;50.106;8.580;2023-08-24T13:43:44;33.90;54.90
11246;DHT22;59870;50.106;8.580;2023-08-24T13:46:16;33.90;54.50
11246;DHT22;59870;50.106;8.580;2023-08-24T13:48:47;34.00;56.40
11246;DHT22;59870;50.106;8.580;2023-08-24T13:51:14;33.90;56.60
11246;DHT22;59870;50.106;8.580;2023-08-24T13:53:43;34.10;56.70
11246;DHT22;59870;50.106;8.580;2023-08-24T13:56:11;34.10;57.20
11246;DHT22;59870;50.106;8.580;2023-08-24T13:58:39;34.00;57.70
11246;DHT22;59870;50.106;8.580;2023-08-24T14:01:07;34.10;56.90
11246;DHT22;59870;50.106;8.580;2023-08-24T14:03:38;34.10;57.00
11246;DHT22;59870;50.106;8.580;2023-08-24T14:06:06;34.10;57.00
11246;DHT22;59870;50.106;8.580;2023-08-24T14:08:34;34.10;56.40
11246;DHT22;59870;50.106;8.580;2023-08-24T14:11:02;34.10;56.50
11246;DHT22;59870;50.106;8.580;2023-08-24T14:13:30;34.10;56.90
11246;DHT22;59870;50.106;8.580;2023-08-24T14:15:58;34.20;56.80
11246;DHT22;59870;50.106;8.580;2023-08-24T14:18:26;34.10;56.00
11246;DHT22;59870;50.106;8.580;2023-08-24T14:20:55;33.90;54.60
11246;DHT22;59870;50.106;8.580;2023-08-24T14:23:22;33.80;54.60
11246;DHT22;59870;50.106;8.580;2023-08-24T14:25:50;33.70;54.40
11246;DHT22;59870;50.106;8.580;2023-08-24T14:28:19;33.60;53.80
11246;DHT22;59870;50.106;8.580;2023-08-24T14:30:50;33.50;54.00
11246;DHT22;59870;50.106;8.580;2023-08-24T14:33:18;33.60;53.70
11246;DHT22;59870;50.106;8.580;2023-08-24T14:35:52;33.50;53.70
11246;DHT22;59870;50.106;8.580;2023-08-24T14:38:20;33.10;54.90
11246;DHT22;59870;50.106;8.580;2023-08-24T14:40:47;33.10;56.30
11246;DHT22;59870;50.106;8.580;2023-08-24T14:43:15;33.00;56.50
11246;DHT22;59870;50.106;8.580;2023-08-24T14:45:43;33.00;56.40
11246;DHT22;59870;50.106;8.580;2023-08-24T14:48:11;33.00;59.40
11246;DHT22;59870;50.106;8.580;2023-08-24T14:50:39;33.00;58.80
11246;DHT22;59870;50.106;8.580;2023-08-24T14:53:08;33.00;58.60
11246;DHT22;59870;50.106;8.580;2023-08-24T14:55:41;33.00;58.10
11246;DHT22;59870;50.106;8.580;2023-08-24T14:58:09;33.00;57.90
11246;DHT22;59870;50.106;8.580;2023-08-24T15:00:36;33.00;58.90
11246;DHT22;59870;50.106;8.580;2023-08-24T15:03:05;33.00;57.40
11246;DHT22;59870;50.106;8.580;2023-08-24T15:05:45;33.30;58.60
11246;DHT22;59870;50.106;8.580;2023-08-24T15:08:13;33.30;58.90
11246;DHT22;59870;50.106;8.580;2023-08-24T15:10:54;33.30;60.20
11246;DHT22;59870;50.106;8.580;2023-08-24T15:13:22;33.00;59.40
11246;DHT22;59870;50.106;8.580;2023-08-24T15:15:54;33.00;58.60
11246;DHT22;59870;50.106;8.580;2023-08-24T15:18:22;33.00;58.40
11246;DHT22;59870;50.106;8.580;2023-08-24T15:20:50;32.90;58.60
11246;DHT22;59870;50.106;8.580;2023-08-24T15:23:30;32.90;58.90
11246;DHT22;59870;50.106;8.580;2023-08-24T15:25:59;32.80;58.90
11246;DHT22;59870;50.106;8.580;2023-08-24T15:28:34;32.80;59.40
11246;DHT22;59870;50.106;8.580;2023-08-24T15:31:02;32.70;59.50
11246;DHT22;59870;50.106;8.580;2023-08-24T15:33:29;32.80;60.00
11246;DHT22;59870;50.106;8.580;2023-08-24T15:35:57;32.40;61.00
11246;DHT22;59870;50.106;8.580;2023-08-24T15:38:25;32.30;61.10
11246;DHT22;59870;50.106;8.580;2023-08-24T15:40:53;32.20;60.70
11246;DHT22;59870;50.106;8.580;2023-08-24T15:43:26;32.20;61.10
11246;DHT22;59870;50.106;8.580;2023-08-24T15:45:56;32.10;61.60
11246;DHT22;59870;50.106;8.580;2023-08-24T15:48:23;32.00;60.80
11246;DHT22;59870;50.106;8.580;2023-08-24T15:50:51;31.90;60.50
11246;DHT22;59870;50.106;8.580;2023-08-24T15:53:21;32.00;60.40
11246;DHT22;59870;50.106;8.580;2023-08-24T15:55:50;31.70;60.60
11246;DHT22;59870;50.106;8.580;2023-08-24T15:58:18;31.50;60.90